createdAt,value
2019-05-02T00:04:57.090Z,82.07
2019-05-02T00:10:20.023Z,82.20
2019-05-02T00:15:39.179Z,82.32
2019-05-02T00:21:01.436Z,82.29
2019-05-02T00:26:18.523Z,82.30
2019-05-02T00:31:37.170Z,82.34
2019-05-02T00:36:57.271Z,82.36
2019-05-02T00:42:17.692Z,82.39
2019-05-02T00:47:47.899Z,82.35
2019-05-02T00:53:07.163Z,82.34
2019-05-02T00:58:27.313Z,82.42
2019-05-02T01:03:51.902Z,82.58
2019-05-02T01:09:10.955Z,82.70
2019-05-02T01:14:31.754Z,82.79
2019-05-02T01:19:51.460Z,82.87
2019-05-02T01:25:15.032Z,82.84
2019-05-02T01:30:42.437Z,82.87
2019-05-02T01:36:06.513Z,82.92
2019-05-02T01:41:24.026Z,83.02
2019-05-02T01:46:43.812Z,83.11
2019-05-02T01:52:02.420Z,100.00
2019-05-02T01:57:21.007Z,100.00
2019-05-02T02:02:39.556Z,100.00
2019-05-02T02:07:58.198Z,100.00
2019-05-02T02:13:16.781Z,100.00
2019-05-02T02:18:37.065Z,100.00
2019-05-02T02:24:03.523Z,100.00
2019-05-02T02:29:22.166Z,100.00
2019-05-02T02:34:40.839Z,100.00
2019-05-02T02:39:59.486Z,100.00
2019-05-02T02:45:51.782Z,100.00
2019-05-02T02:51:07.820Z,100.00
2019-05-02T02:56:26.481Z,100.00
2019-05-02T03:01:45.264Z,100.00
2019-05-02T03:07:04.168Z,100.00
2019-05-02T03:12:24.495Z,100.00
2019-05-02T03:17:43.294Z,100.00
2019-05-02T03:23:02.245Z,100.00
2019-05-02T03:28:21.127Z,100.00
2019-05-02T03:33:54.791Z,100.00
2019-05-02T03:39:13.582Z,100.00
2019-05-02T03:44:26.109Z,100.00
2019-05-02T03:49:48.939Z,100.00
2019-05-02T03:55:02.667Z,100.00
2019-05-02T04:00:24.049Z,100.00
2019-05-02T04:05:42.343Z,100.00
2019-05-02T04:11:19.226Z,100.00
2019-05-02T04:16:38.326Z,100.00
2019-05-02T04:22:01.508Z,100.00
2019-05-02T04:27:18.303Z,100.00
2019-05-02T04:32:36.893Z,100.00
2019-05-02T04:37:59.097Z,100.00
2019-05-02T04:43:18.366Z,100.00
2019-05-02T04:48:43.832Z,100.00
2019-05-02T04:53:58.825Z,100.00
2019-05-02T04:59:21.868Z,100.00
2019-05-02T05:04:42.454Z,100.00
2019-05-02T05:10:03.140Z,100.00
2019-05-02T05:15:33.915Z,100.00
2019-05-02T05:20:40.469Z,100.00
2019-05-02T05:26:03.252Z,100.00
2019-05-02T05:31:24.192Z,100.00
2019-05-02T05:36:40.463Z,100.00
2019-05-02T05:41:59.111Z,100.00
2019-05-02T05:47:21.301Z,100.00
2019-05-02T05:52:42.269Z,100.00
2019-05-02T05:58:01.356Z,100.00
2019-05-02T06:03:19.257Z,100.00
2019-05-02T06:08:37.771Z,100.00
2019-05-02T06:13:56.425Z,100.00
2019-05-02T06:19:17.848Z,100.00
2019-05-02T06:24:35.374Z,100.00
2019-05-02T06:29:56.052Z,100.00
2019-05-02T06:35:17.187Z,100.00
2019-05-02T06:40:39.414Z,100.00
2019-05-02T06:45:55.345Z,100.00
2019-05-02T06:51:19.588Z,100.00
2019-05-02T06:56:34.408Z,100.00
2019-05-02T07:01:57.434Z,100.00
2019-05-02T07:07:13.687Z,100.00
2019-05-02T07:12:32.889Z,100.00
2019-05-02T07:17:52.376Z,100.00
2019-05-02T07:23:16.188Z,100.00
2019-05-02T07:28:31.463Z,100.00
2019-05-02T07:33:50.103Z,98.67
2019-05-02T07:39:10.809Z,97.56
2019-05-02T07:44:32.598Z,96.83
2019-05-02T07:49:49.734Z,95.11
2019-05-02T07:55:10.180Z,88.41
2019-05-02T08:00:32.055Z,65.24
2019-05-02T08:05:49.384Z,65.21
2019-05-02T08:11:07.953Z,64.47
2019-05-02T08:16:27.463Z,63.77
2019-05-02T08:21:46.972Z,64.95
2019-05-02T08:27:07.234Z,64.46
2019-05-02T08:32:27.408Z,62.56
2019-05-02T08:37:46.362Z,62.15
2019-05-02T08:43:09.277Z,62.59
2019-05-02T08:48:25.523Z,62.23
2019-05-02T08:53:44.117Z,61.95
2019-05-02T08:59:02.672Z,61.28
2019-05-02T09:04:24.095Z,62.27
2019-05-02T09:09:42.004Z,61.32
2019-05-02T09:15:02.715Z,60.57
2019-05-02T09:20:23.624Z,59.02
2019-05-02T09:25:42.976Z,60.73
2019-05-02T09:31:05.579Z,60.16
2019-05-02T09:36:22.812Z,60.35
2019-05-02T09:41:41.906Z,60.02
2019-05-02T09:47:02.386Z,58.57
2019-05-02T09:52:22.227Z,57.61
2019-05-02T09:57:42.748Z,56.92
2019-05-02T10:03:02.714Z,56.83
2019-05-02T10:08:22.985Z,56.78
2019-05-02T10:13:42.433Z,53.15
2019-05-02T10:19:09.257Z,50.63
2019-05-02T10:24:22.262Z,51.51
2019-05-02T10:29:41.850Z,47.17
2019-05-02T10:35:02.121Z,47.83
2019-05-02T10:40:22.508Z,50.56
2019-05-02T10:45:47.425Z,48.35
2019-05-02T10:51:25.613Z,49.04
2019-05-02T10:56:42.352Z,49.03
2019-05-02T11:02:12.852Z,50.29
2019-05-02T11:07:32.693Z,48.08
2019-05-02T11:12:56.125Z,49.30
2019-05-02T11:18:14.407Z,48.51
2019-05-02T11:23:33.111Z,47.31
2019-05-02T11:28:52.233Z,48.88
2019-05-02T11:34:12.385Z,47.94
2019-05-02T11:39:40.653Z,48.77
2019-05-02T11:44:52.389Z,48.35
2019-05-02T11:50:11.965Z,46.97
2019-05-02T11:55:31.909Z,45.79
2019-05-02T12:00:52.283Z,47.75
2019-05-02T12:06:19.144Z,46.60
2019-05-02T12:11:32.430Z,46.38
2019-05-02T12:16:52.746Z,47.84
2019-05-02T12:22:12.933Z,47.16
2019-05-02T12:27:31.967Z,44.69
2019-05-02T12:32:52.980Z,47.75
2019-05-02T12:38:12.173Z,46.32
2019-05-02T12:43:31.911Z,47.22
2019-05-02T12:48:51.985Z,46.22
2019-05-02T12:54:12.409Z,45.72
2019-05-02T12:59:32.212Z,46.48
2019-05-02T13:04:52.710Z,45.91
2019-05-02T13:10:14.704Z,45.34
2019-05-02T13:15:33.471Z,46.33
2019-05-02T13:20:52.860Z,47.47
2019-05-02T13:26:20.019Z,46.04
2019-05-02T13:31:34.308Z,45.86
2019-05-02T13:36:54.401Z,47.26
2019-05-02T13:42:13.785Z,48.39
2019-05-02T13:47:32.626Z,46.58
2019-05-02T13:52:56.520Z,46.40
2019-05-02T13:58:11.877Z,45.84
2019-05-02T14:03:32.505Z,46.22
2019-05-02T14:08:53.355Z,46.45
2019-05-02T14:14:12.143Z,46.87
2019-05-02T14:19:31.914Z,48.00
2019-05-02T14:24:51.930Z,47.90
2019-05-02T14:30:12.174Z,48.95
2019-05-02T14:35:32.725Z,49.42
2019-05-02T14:41:03.337Z,49.18
2019-05-02T14:46:23.391Z,51.15
2019-05-02T14:51:42.098Z,53.23
2019-05-02T14:57:02.286Z,58.71
2019-05-02T15:02:22.983Z,61.43
2019-05-02T15:07:42.135Z,64.51
2019-05-02T15:13:01.928Z,65.41
2019-05-02T15:18:22.772Z,66.56
2019-05-02T15:23:42.311Z,67.44
2019-05-02T15:29:01.933Z,67.86
2019-05-02T15:34:35.506Z,67.44
2019-05-02T15:45:15.169Z,66.57
2019-05-02T15:50:33.803Z,65.14
2019-05-02T15:55:52.724Z,66.01
2019-05-02T16:01:14.234Z,65.08
2019-05-02T16:06:33.901Z,63.91
2019-05-02T16:11:56.761Z,65.62
2019-05-02T16:17:17.727Z,63.85
2019-05-02T16:22:38.307Z,65.51
2019-05-02T16:27:57.499Z,66.56
2019-05-02T16:33:19.695Z,68.32
2019-05-02T16:38:35.227Z,71.22
2019-05-02T16:43:54.592Z,72.93
2019-05-02T16:49:16.858Z,74.01
2019-05-02T16:54:41.559Z,74.55
2019-05-02T17:00:01.502Z,74.91
2019-05-02T17:05:14.961Z,75.54
2019-05-02T17:10:47.433Z,75.32
2019-05-02T17:16:13.115Z,75.72
2019-05-02T17:21:26.948Z,75.80
2019-05-02T17:26:47.260Z,75.30
2019-05-02T17:32:08.774Z,75.80
2019-05-02T17:37:26.436Z,75.78
2019-05-02T17:42:45.124Z,75.89
2019-05-02T17:48:09.878Z,75.94
2019-05-02T17:53:24.569Z,75.59
2019-05-02T17:58:47.470Z,75.07
2019-05-02T18:04:06.993Z,75.61
2019-05-02T18:09:26.248Z,75.54
2019-05-02T18:14:44.450Z,76.13
2019-05-02T18:20:05.929Z,76.42
2019-05-02T18:25:25.188Z,76.20
2019-05-02T18:30:44.006Z,76.34
2019-05-02T18:36:02.679Z,76.37
2019-05-02T18:41:22.419Z,76.55
2019-05-02T18:46:42.620Z,76.76
2019-05-02T18:52:01.834Z,76.98
2019-05-02T18:57:24.467Z,77.22
2019-05-02T19:02:42.476Z,77.55
2019-05-02T19:08:02.628Z,77.91
2019-05-02T19:13:22.307Z,78.04
2019-05-02T19:18:42.509Z,78.38
2019-05-02T19:24:02.311Z,78.57
2019-05-02T19:29:28.697Z,78.55
2019-05-02T19:34:47.281Z,78.33
2019-05-02T19:40:09.731Z,78.20
2019-05-02T19:45:28.602Z,78.31
2019-05-02T19:50:47.281Z,78.43
2019-05-02T19:56:06.750Z,78.53
2019-05-02T20:01:26.625Z,78.66
2019-05-02T20:06:48.741Z,78.76
2019-05-02T20:12:09.653Z,78.81
2019-05-02T20:17:28.041Z,78.81
2019-05-02T20:22:47.188Z,78.66
2019-05-02T20:28:06.308Z,78.39
2019-05-02T20:33:24.957Z,78.13
2019-05-02T20:38:43.977Z,77.81
2019-05-02T20:44:05.680Z,77.77
2019-05-02T20:49:24.669Z,76.04
2019-05-02T20:54:43.726Z,74.42
2019-05-02T21:00:02.550Z,73.61
2019-05-02T21:05:24.823Z,73.37
2019-05-02T21:10:52.289Z,70.88
2019-05-02T21:16:12.522Z,70.36
2019-05-02T21:21:33.535Z,71.59
2019-05-02T21:26:52.726Z,71.83
2019-05-02T21:32:12.022Z,73.36
2019-05-02T21:37:31.993Z,74.04
2019-05-02T21:42:53.814Z,74.70
2019-05-02T21:48:14.866Z,74.64
2019-05-02T21:53:35.520Z,74.84
2019-05-02T21:59:12.937Z,75.04
2019-05-02T22:04:31.912Z,75.07
2019-05-02T22:09:52.255Z,74.43
2019-05-02T22:15:12.743Z,74.37
2019-05-02T22:20:32.101Z,74.65
2019-05-02T22:25:52.538Z,74.19
2019-05-02T22:31:12.376Z,73.69
2019-05-02T22:36:32.736Z,73.88
2019-05-02T22:41:52.600Z,73.71
2019-05-02T22:47:11.800Z,73.84
2019-05-02T22:52:32.320Z,73.91
2019-05-02T22:57:51.781Z,74.28
2019-05-02T23:03:12.553Z,74.69
2019-05-02T23:08:31.360Z,74.55
2019-05-02T23:13:51.761Z,74.66
2019-05-02T23:19:12.319Z,74.57
2019-05-02T23:24:49.159Z,74.62
2019-05-02T23:30:11.588Z,74.81
2019-05-02T23:35:31.983Z,74.50
2019-05-02T23:40:52.610Z,74.40
2019-05-02T23:46:11.611Z,74.64
2019-05-02T23:51:32.096Z,74.55
2019-05-02T23:56:50.891Z,74.58
